Time;durP1;ratioP1;P1;durP2;ratioP2;P2;SDS_P1;SDS_P2;PMS_P1;PMS_P2;Temp;Humidity;BMP_temperature;BMP_pressure;BME280_temperature;BME280_humidity;BME280_pressure;Samples;Min_cycle;Max_cycle;Signal;HPM_P1;HPM_P2
2022/12/06 00:08:34;;;;;;;2.53;2.33;;;;;;;0.73;39.01;101843.06;31318490;28;20481;-72
2022/12/06 00:23:38;;;;;;;4.77;2.93;;;;;;;0.51;39.82;101835.91;31341455;28;20053;-71
2022/12/06 00:38:40;;;;;;;1.67;1.57;;;;;;;0.57;39.34;101834.69;31334205;28;20507;-71
2022/12/06 00:53:43;;;;;;;2.03;1.90;;;;;;;0.41;38.49;101815.59;31328397;28;20108;-72
2022/12/06 01:08:45;;;;;;;1.73;1.63;;;;;;;0.44;38.72;101819.56;31316300;28;20061;-73
2022/12/06 01:23:48;;;;;;;3.07;2.87;;;;;;;0.56;38.30;101811.72;31313388;28;21312;-72
2022/12/06 01:38:54;;;;;;;5.30;2.40;;;;;;;0.65;37.96;101799.19;31328416;28;20083;-74
2022/12/06 01:53:58;;;;;;;1.80;1.70;;;;;;;0.71;37.85;101797.94;31336660;28;20052;-73
2022/12/06 02:09:04;;;;;;;1.60;1.57;;;;;;;1.01;37.19;101775.66;31343999;28;20416;-73
2022/12/06 02:24:17;;;;;;;2.33;2.13;;;;;;;0.56;37.77;101777.78;31354885;28;20049;-73
2022/12/06 02:39:27;;;;;;;2.53;2.33;;;;;;;0.88;37.48;101757.09;31357182;28;20053;-71
2022/12/06 02:54:30;;;;;;;2.63;2.43;;;;;;;0.90;37.27;101742.31;31380648;28;20045;-71
2022/12/06 03:09:44;;;;;;;2.10;1.97;;;;;;;0.89;37.19;101738.06;31354233;28;20048;-71
2022/12/06 03:24:46;;;;;;;2.13;1.80;;;;;;;0.65;37.86;101746.53;31345624;28;20053;-71
2022/12/06 03:40:10;;;;;;;3.10;2.80;;;;;;;0.38;38.28;101709.34;31338172;28;20481;-71
2022/12/06 03:55:12;;;;;;;3.23;2.50;;;;;;;0.18;38.44;101712.59;31350322;28;20044;-72
2022/12/06 04:10:14;;;;;;;2.03;1.90;;;;;;;0.24;38.25;101704.09;31336406;28;20056;-71
2022/12/06 04:25:16;;;;;;;2.47;2.37;;;;;;;0.00;38.43;101693.81;31349501;28;20060;-72
2022/12/06 04:40:18;;;;;;;3.03;2.83;;;;;;;-0.11;37.72;101689.06;31319879;28;20068;-72
2022/12/06 04:55:19;;;;;;;2.37;2.20;;;;;;;0.03;37.44;101689.75;31317586;28;20053;-74
2022/12/06 05:10:21;;;;;;;2.10;2.00;;;;;;;0.02;37.18;101684.72;31320006;28;20056;-72
2022/12/06 05:25:23;;;;;;;3.43;2.57;;;;;;;-0.30;37.35;101670.63;31324150;28;20088;-71
2022/12/06 05:40:25;;;;;;;2.60;2.40;;;;;;;-0.11;37.07;101686.41;31338431;28;20085;-71
2022/12/06 05:55:27;;;;;;;2.60;2.43;;;;;;;2.18;33.60;101664.75;31344424;28;20052;-72
2022/12/06 06:10:29;;;;;;;2.60;2.40;;;;;;;3.62;30.27;101664.22;31332408;28;20077;-72
2022/12/06 06:25:31;;;;;;;3.83;2.40;;;;;;;5.27;29.34;101655.34;31359311;28;20048;-71
2022/12/06 06:40:34;;;;;;;6.37;2.43;;;;;;;6.07;27.10;101641.59;31333235;28;20102;-73
2022/12/06 06:55:36;;;;;;;2.50;2.30;;;;;;;7.60;25.78;101636.53;31336183;28;20415;-72
2022/12/06 07:10:38;;;;;;;4.83;2.40;;;;;;;8.46;25.08;101624.00;31323699;28;20089;-71
2022/12/06 07:25:40;;;;;;;5.10;2.93;;;;;;;9.17;24.84;101619.41;31355768;28;20049;-72
2022/12/06 07:40:42;;;;;;;8.37;3.27;;;;;;;10.91;23.83;101619.81;31365876;28;20056;-73
2022/12/06 07:56:05;;;;;;;3.87;2.10;;;;;;;11.06;23.91;101585.31;31346849;28;20047;-73
2022/12/06 08:11:07;;;;;;;4.37;2.17;;;;;;;10.55;24.31;101565.38;31341050;28;20048;-74
2022/12/06 08:26:13;;;;;;;2.10;1.77;;;;;;;11.45;23.33;101550.78;31334739;28;20068;-73
2022/12/06 08:56:50;;;;;;;4.60;2.23;;;;;;;10.76;24.39;101493.25;31310141;28;20484;-70
2022/12/06 09:11:52;;;;;;;3.70;1.70;;;;;;;11.31;24.84;101501.06;31347474;28;20114;-78
2022/12/06 09:26:54;;;;;;;2.43;1.67;;;;;;;12.70;23.63;101479.63;31393649;28;20053;-77
2022/12/06 09:42:22;;;;;;;3.50;1.90;;;;;;;11.98;23.12;101473.75;31396447;28;20053;-81
2022/12/06 09:57:44;;;;;;;8.97;1.80;;;;;;;13.72;22.49;101437.03;31397621;28;20051;-77
2022/12/06 10:13:05;;;;;;;1.80;1.33;;;;;;;12.20;23.96;101403.66;31345347;28;20061;-77
2022/12/06 10:28:44;;;;;;;5.20;1.43;;;;;;;11.84;24.14;101371.19;31378303;28;20374;-80
2022/12/06 10:44:18;;;;;;;5.27;2.30;;;;;;;13.22;23.14;101347.59;31388844;28;20061;-78
2022/12/06 10:59:41;;;;;;;2.30;1.33;;;;;;;12.86;22.38;101360.75;31341828;28;20724;-68
2022/12/06 11:14:49;;;;;;;2.80;1.43;;;;;;;11.71;23.14;101351.00;31353168;28;20110;-69
2022/12/06 11:29:52;;;;;;;5.80;1.70;;;;;;;12.28;23.00;101332.41;31384839;28;20056;-78
2022/12/06 11:44:59;;;;;;;3.90;1.33;;;;;;;12.70;22.76;101321.59;31336457;28;20049;-70
2022/12/06 12:00:08;;;;;;;1.13;1.03;;;;;;;13.60;21.99;101306.63;31332392;28;20045;-71
2022/12/06 12:15:16;;;;;;;4.20;2.00;;;;;;;13.81;21.13;101311.78;31307465;28;20049;-69
2022/12/06 12:30:20;;;;;;;1.90;1.47;;;;;;;11.55;23.21;101312.63;31338244;28;20114;-70
2022/12/06 12:45:22;;;;;;;1.93;1.63;;;;;;;9.67;25.14;101299.16;31329386;28;20056;-70
2022/12/06 13:00:31;;;;;;;2.07;1.77;;;;;;;9.19;25.66;101296.63;31307634;28;20053;-70
2022/12/06 13:15:48;;;;;;;2.33;1.70;;;;;;;9.46;26.14;101288.97;31327789;28;20053;-72
2022/12/06 13:31:10;;;;;;;4.87;2.30;;;;;;;8.64;26.76;101287.78;31336118;28;20139;-73
2022/12/06 13:46:25;;;;;;;5.00;2.83;;;;;;;8.33;26.66;101292.56;31328863;28;20049;-72
2022/12/06 14:01:50;;;;;;;2.80;2.07;;;;;;;8.60;26.51;101281.53;31349559;28;20049;-74
2022/12/06 14:33:55;;;;;;;5.90;2.33;;;;;;;8.51;27.31;101260.22;31452919;28;20056;-83
2022/12/06 15:04:38;;;;;;;5.57;2.13;;;;;;;7.57;28.03;101251.59;31418524;28;20413;-71
2022/12/06 15:19:53;;;;;;;5.23;2.20;;;;;;;7.73;28.09;101240.59;31421685;28;20202;-81
2022/12/06 15:34:55;;;;;;;4.53;2.63;;;;;;;7.22;27.58;101232.31;31438724;28;20049;-78
2022/12/06 15:49:57;;;;;;;4.20;2.37;;;;;;;7.28;28.00;101247.03;31400230;28;20417;-72
2022/12/06 16:04:59;;;;;;;2.47;2.27;;;;;;;7.10;27.78;101231.38;31336060;28;21603;-71
2022/12/06 16:20:30;;;;;;;3.37;2.30;;;;;;;6.66;27.79;101236.56;31376204;28;20075;-83
2022/12/06 16:35:57;;;;;;;10.67;3.23;;;;;;;6.25;27.88;101230.19;31384072;28;20049;-83
2022/12/06 16:50:59;;;;;;;4.67;2.67;;;;;;;5.83;27.65;101243.69;31413542;28;20178;-82
2022/12/06 17:06:02;;;;;;;6.20;2.87;;;;;;;5.75;27.34;101232.00;31426126;28;20385;-81
2022/12/06 17:21:06;;;;;;;4.40;3.00;;;;;;;5.81;26.84;101222.50;31432608;28;20497;-82
2022/12/06 17:36:12;;;;;;;4.80;2.87;;;;;;;5.52;27.41;101215.03;31383505;28;20057;-72
2022/12/06 17:51:14;;;;;;;5.63;3.07;;;;;;;5.58;26.93;101210.91;31357522;28;20080;-74
2022/12/06 18:06:17;;;;;;;5.20;3.10;;;;;;;5.62;27.03;101186.75;31351784;28;20061;-72
2022/12/06 18:21:19;;;;;;;5.37;2.90;;;;;;;5.55;27.35;101179.31;31354762;28;20052;-71
2022/12/06 18:36:21;;;;;;;4.50;2.63;;;;;;;5.47;27.08;101172.22;31339286;28;20048;-71
2022/12/06 18:51:25;;;;;;;8.00;3.53;;;;;;;5.06;27.38;101166.47;31363659;28;20060;-72
2022/12/06 19:06:35;;;;;;;7.33;3.20;;;;;;;5.31;27.81;101155.41;31330365;28;20041;-71
2022/12/06 19:21:37;;;;;;;3.97;3.57;;;;;;;5.04;27.80;101147.19;31355812;28;20519;-72
2022/12/06 19:36:39;;;;;;;6.13;3.17;;;;;;;5.06;28.12;101131.47;31349042;28;20052;-71
2022/12/06 19:51:44;;;;;;;12.67;4.13;;;;;;;5.11;28.76;101123.13;31327422;28;20125;-77
2022/12/06 20:06:46;;;;;;;5.23;3.67;;;;;;;5.03;28.98;101118.72;31333637;28;20095;-72
2022/12/06 20:21:48;;;;;;;9.00;6.03;;;;;;;5.21;28.79;101126.34;31343604;28;20053;-73
2022/12/06 20:36:50;;;;;;;7.53;4.97;;;;;;;5.00;29.68;101130.22;31350010;28;20080;-70
2022/12/06 20:51:52;;;;;;;4.53;3.73;;;;;;;4.88;29.68;101138.44;31313904;28;20509;-72
2022/12/06 21:06:55;;;;;;;8.83;4.57;;;;;;;4.86;29.93;101137.22;31318121;28;20048;-72
2022/12/06 21:22:00;;;;;;;6.30;3.60;;;;;;;4.83;30.52;101116.41;31325442;28;21245;-72
2022/12/06 21:37:02;;;;;;;14.90;5.73;;;;;;;4.55;31.63;101089.72;31314425;28;20512;-71
2022/12/06 21:52:04;;;;;;;4.67;3.57;;;;;;;4.35;31.76;101094.31;31317603;28;20382;-71
2022/12/06 22:07:10;;;;;;;7.07;4.03;;;;;;;4.53;31.75;101079.31;31318340;28;20477;-72
2022/12/06 22:22:12;;;;;;;8.63;4.40;;;;;;;4.19;33.32;101043.28;31352763;28;20063;-70
2022/12/06 22:37:14;;;;;;;5.90;3.80;;;;;;;4.58;33.52;101021.78;31330772;28;20042;-70
2022/12/06 22:52:16;;;;;;;6.40;3.73;;;;;;;4.52;33.38;101009.75;31348115;28;20076;-70
2022/12/06 23:07:18;;;;;;;7.20;4.00;;;;;;;4.14;34.92;101003.25;31351905;28;20083;-69
2022/12/06 23:22:20;;;;;;;7.63;3.90;;;;;;;4.57;34.51;101004.09;31346274;28;20060;-71
2022/12/06 23:37:22;;;;;;;5.57;2.27;;;;;;;4.19;34.87;100994.91;31367718;28;20061;-70
2022/12/06 23:52:23;;;;;;;4.93;3.00;;;;;;;3.95;35.47;101011.28;31332411;28;20548;-69
